createdAt,value
2022-10-17T00:00:42.130Z,75.50
2022-10-17T00:03:09.658Z,74.90
2022-10-17T00:05:41.120Z,74.69
2022-10-17T00:08:08.084Z,74.31
2022-10-17T00:10:35.062Z,74.09
2022-10-17T00:13:01.771Z,73.72
2022-10-17T00:15:28.326Z,73.87
2022-10-17T00:17:55.002Z,73.83
2022-10-17T00:20:21.646Z,73.76
2022-10-17T00:22:48.217Z,74.25
2022-10-17T00:25:14.925Z,74.07
2022-10-17T00:27:42.583Z,74.12
2022-10-17T00:30:14.191Z,74.18
2022-10-17T00:32:41.727Z,74.58
2022-10-17T00:35:09.131Z,74.99
2022-10-17T00:37:35.729Z,75.99
2022-10-17T00:40:03.000Z,76.22
2022-10-17T00:42:30.036Z,75.95
2022-10-17T00:45:18.206Z,75.92
2022-10-17T00:47:50.231Z,75.65
2022-10-17T00:50:18.121Z,75.52
2022-10-17T00:52:47.012Z,76.23
2022-10-17T00:55:22.862Z,76.16
2022-10-17T00:57:50.379Z,76.87
2022-10-17T01:00:19.932Z,77.26
2022-10-17T01:02:46.784Z,76.86
2022-10-17T01:05:15.654Z,76.72
2022-10-17T01:07:44.181Z,76.63
2022-10-17T01:10:11.979Z,76.28
2022-10-17T01:12:58.792Z,76.48
2022-10-17T01:16:02.277Z,76.04
2022-10-17T01:18:31.765Z,76.26
2022-10-17T01:21:03.419Z,76.07
2022-10-17T01:23:33.375Z,76.06
2022-10-17T01:26:21.525Z,76.11
2022-10-17T01:29:28.509Z,76.19
2022-10-17T01:32:07.368Z,76.49
2022-10-17T01:34:37.687Z,76.97
2022-10-17T01:37:28.549Z,76.97
2022-10-17T01:39:58.534Z,76.85
2022-10-17T01:42:37.133Z,77.06
2022-10-17T01:45:18.029Z,77.30
2022-10-17T01:47:47.867Z,77.14
2022-10-17T01:50:21.303Z,77.07
2022-10-17T01:53:12.424Z,77.19
2022-10-17T01:55:43.759Z,77.41
2022-10-17T01:58:17.131Z,77.34
2022-10-17T02:00:46.602Z,77.20
2022-10-17T02:03:18.867Z,76.83
2022-10-17T02:05:45.866Z,76.42
2022-10-17T02:08:13.095Z,76.18
2022-10-17T02:10:54.307Z,76.11
2022-10-17T02:13:32.930Z,75.81
2022-10-17T02:16:13.301Z,75.70
2022-10-17T02:19:23.578Z,75.54
2022-10-17T02:22:21.149Z,75.36
2022-10-17T02:24:58.743Z,75.26
2022-10-17T02:27:56.379Z,75.26
2022-10-17T02:30:47.042Z,75.35
2022-10-17T02:33:38.173Z,75.42
2022-10-17T02:36:14.978Z,75.67
2022-10-17T02:38:44.338Z,75.53
2022-10-17T02:41:15.714Z,75.77
2022-10-17T02:43:45.464Z,76.36
2022-10-17T02:46:20.767Z,76.22
2022-10-17T02:48:53.301Z,76.31
2022-10-17T02:52:01.203Z,76.03
2022-10-17T02:54:42.815Z,76.09
2022-10-17T02:57:18.844Z,76.16
2022-10-17T02:59:46.813Z,76.29
2022-10-17T03:02:13.469Z,75.91
2022-10-17T03:04:46.618Z,75.89
2022-10-17T03:07:13.578Z,75.87
2022-10-17T03:09:40.123Z,76.13
2022-10-17T03:12:06.691Z,75.78
2022-10-17T03:14:33.993Z,76.04
2022-10-17T03:17:00.989Z,76.26
2022-10-17T03:19:27.662Z,76.24
2022-10-17T03:21:54.301Z,76.12
2022-10-17T03:24:21.721Z,76.85
2022-10-17T03:26:48.340Z,76.71
2022-10-17T03:29:15.048Z,77.24
2022-10-17T03:31:41.994Z,76.96
2022-10-17T03:34:09.927Z,77.14
2022-10-17T03:36:36.762Z,77.19
2022-10-17T03:39:04.032Z,76.91
2022-10-17T03:41:31.127Z,77.15
2022-10-17T03:43:58.144Z,77.09
2022-10-17T03:46:25.240Z,77.03
2022-10-17T03:48:52.462Z,77.71
2022-10-17T03:51:19.402Z,77.79
2022-10-17T03:53:51.154Z,78.14
2022-10-17T03:56:21.066Z,78.13
2022-10-17T03:58:56.552Z,78.23
2022-10-17T04:01:23.921Z,78.50
2022-10-17T04:03:52.713Z,78.84
2022-10-17T04:06:20.345Z,79.48
2022-10-17T04:08:47.593Z,79.44
2022-10-17T04:11:21.518Z,79.66
2022-10-17T04:13:53.975Z,79.86
2022-10-17T04:16:20.928Z,80.16
2022-10-17T04:18:59.860Z,80.18
2022-10-17T04:21:30.424Z,80.64
2022-10-17T04:24:01.359Z,81.06
2022-10-17T04:26:51.300Z,81.13
2022-10-17T04:29:19.332Z,81.13
2022-10-17T04:31:49.863Z,81.55
2022-10-17T04:34:30.180Z,81.82
2022-10-17T04:36:57.198Z,81.46
2022-10-17T04:39:23.935Z,81.52
2022-10-17T04:41:51.107Z,81.02
2022-10-17T04:44:18.059Z,81.24
2022-10-17T04:46:50.737Z,81.18
2022-10-17T04:49:17.419Z,81.63
2022-10-17T04:51:47.345Z,81.46
2022-10-17T04:54:20.811Z,81.11
2022-10-17T04:56:52.898Z,81.63
2022-10-17T04:59:19.674Z,81.46
2022-10-17T05:01:49.775Z,81.20
2022-10-17T05:04:21.099Z,81.48
2022-10-17T05:06:50.649Z,81.23
2022-10-17T05:09:37.393Z,81.61
2022-10-17T05:12:06.753Z,81.33
2022-10-17T05:14:37.609Z,81.30
2022-10-17T05:17:05.053Z,81.35
2022-10-17T05:19:31.696Z,81.33
2022-10-17T05:21:59.129Z,81.37
2022-10-17T05:24:25.745Z,81.39
2022-10-17T05:26:53.239Z,81.85
2022-10-17T05:29:20.030Z,81.61
2022-10-17T05:31:52.109Z,81.49
2022-10-17T05:34:19.543Z,81.25
2022-10-17T05:36:46.298Z,81.08
2022-10-17T05:39:19.453Z,81.01
2022-10-17T05:41:47.583Z,81.10
2022-10-17T05:44:14.255Z,80.86
2022-10-17T05:46:45.089Z,80.94
2022-10-17T05:49:19.675Z,80.94
2022-10-17T05:51:52.457Z,80.98
2022-10-17T05:54:19.209Z,81.37
2022-10-17T05:56:45.846Z,81.61
2022-10-17T05:59:12.444Z,81.30
2022-10-17T06:01:48.359Z,81.39
2022-10-17T06:04:21.111Z,81.34
2022-10-17T06:06:47.741Z,81.29
2022-10-17T06:09:14.348Z,81.39
2022-10-17T06:11:46.142Z,81.28
2022-10-17T06:14:12.942Z,81.27
2022-10-17T06:16:41.069Z,81.32
2022-10-17T06:19:07.932Z,81.28
2022-10-17T06:21:36.634Z,81.14
2022-10-17T06:24:10.639Z,81.20
2022-10-17T06:26:40.646Z,81.19
2022-10-17T06:29:08.743Z,81.14
2022-10-17T06:31:41.542Z,80.96
2022-10-17T06:34:08.269Z,80.72
2022-10-17T06:36:35.389Z,80.72
2022-10-17T06:39:02.355Z,80.39
2022-10-17T06:41:35.860Z,79.74
2022-10-17T06:44:10.995Z,79.74
2022-10-17T06:46:46.926Z,79.56
2022-10-17T06:49:16.579Z,79.45
2022-10-17T06:52:17.423Z,79.51
2022-10-17T06:54:58.249Z,79.12
2022-10-17T06:57:41.851Z,78.87
2022-10-17T07:00:28.331Z,78.90
2022-10-17T07:02:56.946Z,78.37
2022-10-17T07:05:23.668Z,77.86
2022-10-17T07:07:51.851Z,77.91
2022-10-17T07:10:19.030Z,77.37
2022-10-17T07:12:45.913Z,76.96
2022-10-17T07:15:12.848Z,76.83
2022-10-17T07:17:39.561Z,76.86
2022-10-17T07:20:06.723Z,76.46
2022-10-17T07:22:35.418Z,76.09
2022-10-17T07:25:02.068Z,76.23
2022-10-17T07:27:44.664Z,76.00
2022-10-17T07:30:11.871Z,75.90
2022-10-17T07:32:40.847Z,75.50
2022-10-17T07:35:10.130Z,75.27
2022-10-17T07:37:37.182Z,75.50
2022-10-17T07:40:07.162Z,75.04
2022-10-17T07:42:36.658Z,74.83
2022-10-17T07:45:05.029Z,74.71
2022-10-17T07:47:35.557Z,74.26
2022-10-17T07:50:04.183Z,74.45
2022-10-17T07:52:31.302Z,74.74
2022-10-17T07:54:58.111Z,75.20
2022-10-17T07:57:24.863Z,74.99
2022-10-17T07:59:51.523Z,75.06
2022-10-17T08:02:26.090Z,74.70
2022-10-17T08:04:53.182Z,75.35
2022-10-17T08:07:24.159Z,75.35
2022-10-17T08:09:53.610Z,75.50
2022-10-17T08:12:20.403Z,75.16
2022-10-17T08:14:48.106Z,75.11
2022-10-17T08:17:14.699Z,75.07
2022-10-17T08:19:41.336Z,75.20
2022-10-17T08:22:08.294Z,75.29
2022-10-17T08:24:35.101Z,75.35
2022-10-17T08:27:02.120Z,75.64
2022-10-17T08:29:28.841Z,75.50
2022-10-17T08:32:00.960Z,75.91
2022-10-17T08:34:28.187Z,75.82
2022-10-17T08:36:54.779Z,75.83
2022-10-17T08:39:21.389Z,75.81
2022-10-17T08:41:54.153Z,75.49
2022-10-17T08:44:39.336Z,75.19
2022-10-17T08:47:14.913Z,74.83
2022-10-17T08:49:52.474Z,74.38
2022-10-17T08:52:29.554Z,73.93
2022-10-17T08:54:56.548Z,73.67
2022-10-17T08:57:23.209Z,73.32
2022-10-17T08:59:52.595Z,72.72
2022-10-17T09:02:33.325Z,72.09
2022-10-17T09:05:25.479Z,71.47
2022-10-17T09:08:00.676Z,70.91
2022-10-17T09:10:33.430Z,70.72
2022-10-17T09:13:08.875Z,70.17
2022-10-17T09:16:04.005Z,69.88
2022-10-17T09:18:39.613Z,69.84
2022-10-17T09:21:40.309Z,69.23
2022-10-17T09:24:16.020Z,69.03
2022-10-17T09:26:45.447Z,69.01
2022-10-17T09:29:20.544Z,68.48
2022-10-17T09:32:15.481Z,67.87
2022-10-17T09:34:42.149Z,68.08
2022-10-17T09:37:14.596Z,68.01
2022-10-17T09:39:43.354Z,67.57
2022-10-17T09:42:15.141Z,67.26
2022-10-17T09:45:02.564Z,66.66
2022-10-17T09:47:59.508Z,66.30
2022-10-17T09:50:31.405Z,66.26
2022-10-17T09:53:21.966Z,66.06
2022-10-17T09:55:56.286Z,65.87
2022-10-17T09:58:23.597Z,65.75
2022-10-17T10:00:50.291Z,65.96
2022-10-17T10:03:25.466Z,66.08
2022-10-17T10:06:16.658Z,65.97
2022-10-17T10:08:55.117Z,65.79
2022-10-17T10:11:47.076Z,65.97
2022-10-17T10:14:20.386Z,66.31
2022-10-17T10:16:48.339Z,66.33
2022-10-17T10:19:32.102Z,66.61
2022-10-17T10:22:01.325Z,66.82
2022-10-17T10:24:30.996Z,67.22
2022-10-17T10:27:01.627Z,67.04
2022-10-17T10:29:31.301Z,67.13
2022-10-17T10:32:09.003Z,67.39
2022-10-17T10:34:37.166Z,67.53
2022-10-17T10:37:16.232Z,67.96
2022-10-17T10:39:51.914Z,68.20
2022-10-17T10:42:42.314Z,68.68
2022-10-17T10:45:23.716Z,68.97
2022-10-17T10:48:20.538Z,69.15
2022-10-17T10:51:01.692Z,69.52
2022-10-17T10:53:35.891Z,69.44
2022-10-17T10:56:25.814Z,69.38
2022-10-17T10:59:04.664Z,69.14
2022-10-17T11:01:34.111Z,68.95
2022-10-17T11:04:25.561Z,68.72
2022-10-17T11:06:58.853Z,68.72
2022-10-17T11:09:58.769Z,68.00
2022-10-17T11:12:31.505Z,68.70
2022-10-17T11:15:17.103Z,68.61
2022-10-17T11:18:30.297Z,68.40
2022-10-17T11:21:05.254Z,68.39
2022-10-17T11:23:51.977Z,68.37
2022-10-17T11:26:26.925Z,68.33
2022-10-17T11:28:54.955Z,68.06
2022-10-17T11:31:25.700Z,67.80
2022-10-17T11:34:00.406Z,67.85
2022-10-17T11:36:31.671Z,67.74
2022-10-17T11:39:30.053Z,67.41
2022-10-17T11:42:06.979Z,67.36
2022-10-17T11:44:41.369Z,66.92
2022-10-17T11:47:35.892Z,66.87
2022-10-17T11:53:15.930Z,66.34
2022-10-17T11:55:44.598Z,66.16
2022-10-17T11:58:11.137Z,65.94
2022-10-17T12:00:55.859Z,66.05
2022-10-17T12:03:51.837Z,65.72
2022-10-17T12:06:53.774Z,65.44
2022-10-17T12:09:29.300Z,64.84
2022-10-17T12:12:02.442Z,64.40
2022-10-17T12:14:39.612Z,63.66
2022-10-17T12:17:25.328Z,63.51
2022-10-17T12:19:51.965Z,63.22
2022-10-17T12:22:23.142Z,62.66
2022-10-17T12:25:04.030Z,61.73
2022-10-17T12:27:32.847Z,60.93
2022-10-17T12:30:07.005Z,60.65
2022-10-17T12:33:03.758Z,59.86
2022-10-17T12:35:23.572Z,59.69
2022-10-17T12:37:55.227Z,59.45
2022-10-17T12:40:36.147Z,58.97
2022-10-17T12:43:28.174Z,59.94
2022-10-17T12:45:54.842Z,61.59
2022-10-17T12:48:33.817Z,62.80
2022-10-17T12:51:30.859Z,64.20
2022-10-17T12:53:59.228Z,65.79
2022-10-17T12:56:37.573Z,66.45
2022-10-17T12:59:27.686Z,67.29
2022-10-17T13:02:00.013Z,67.51
2022-10-17T13:04:28.500Z,68.13
2022-10-17T13:06:58.685Z,68.75
2022-10-17T13:09:31.403Z,69.07
2022-10-17T13:12:01.447Z,69.19
2022-10-17T13:14:29.168Z,69.31
2022-10-17T13:16:57.523Z,69.68
2022-10-17T13:19:30.571Z,70.11
2022-10-17T13:22:06.695Z,70.43
2022-10-17T13:24:39.024Z,70.84
2022-10-17T13:27:21.428Z,71.11
2022-10-17T13:29:48.161Z,71.49
2022-10-17T13:32:14.720Z,71.79
2022-10-17T13:34:41.498Z,71.84
2022-10-17T13:37:13.385Z,71.97
2022-10-17T13:39:55.233Z,72.08
2022-10-17T13:42:31.281Z,72.24
2022-10-17T13:44:59.472Z,72.35
2022-10-17T13:47:29.614Z,72.72
2022-10-17T13:49:57.783Z,72.99
2022-10-17T13:52:30.422Z,73.05
2022-10-17T13:55:17.458Z,73.41
2022-10-17T13:57:44.451Z,73.30
2022-10-17T14:00:19.657Z,73.65
2022-10-17T14:02:46.866Z,74.02
2022-10-17T14:05:18.632Z,74.07
2022-10-17T14:08:10.630Z,74.16
2022-10-17T14:10:40.677Z,74.13
2022-10-17T14:13:19.132Z,74.34
2022-10-17T14:15:46.574Z,74.27
2022-10-17T14:18:34.905Z,74.36
2022-10-17T14:23:53.069Z,74.23
2022-10-17T14:26:22.091Z,74.25
2022-10-17T14:29:12.792Z,74.69
2022-10-17T14:31:40.078Z,75.03
2022-10-17T14:34:06.705Z,75.00
2022-10-17T14:36:37.806Z,75.37
2022-10-17T14:39:11.867Z,75.30
2022-10-17T14:41:45.276Z,75.61
2022-10-17T14:44:31.847Z,75.76
2022-10-17T14:47:30.791Z,75.90
2022-10-17T14:50:23.680Z,76.25
2022-10-17T14:53:02.238Z,76.23
2022-10-17T14:55:31.395Z,76.38
2022-10-17T14:57:57.989Z,76.72
2022-10-17T15:00:25.633Z,76.71
2022-10-17T15:02:53.969Z,76.92
2022-10-17T15:05:23.053Z,76.74
2022-10-17T15:07:50.047Z,76.62
2022-10-17T15:10:33.025Z,76.40
2022-10-17T15:13:26.087Z,76.40
2022-10-17T15:15:52.025Z,78.03
2022-10-17T15:18:19.206Z,78.68
2022-10-17T15:20:45.842Z,78.62
2022-10-17T15:23:12.590Z,78.45
2022-10-17T15:25:39.474Z,78.31
2022-10-17T15:28:06.391Z,79.36
2022-10-17T15:30:36.348Z,80.17
2022-10-17T15:33:03.117Z,79.87
2022-10-17T15:35:30.280Z,79.67
2022-10-17T15:37:56.953Z,80.77
2022-10-17T15:40:28.749Z,81.38
2022-10-17T15:42:56.435Z,82.66
2022-10-17T15:45:23.621Z,82.13
2022-10-17T15:47:57.166Z,82.70
2022-10-17T15:50:23.839Z,82.00
2022-10-17T15:52:51.071Z,81.45
2022-10-17T15:55:18.623Z,81.07
2022-10-17T15:57:47.493Z,80.74
2022-10-17T16:00:22.980Z,81.09
2022-10-17T16:02:50.325Z,81.20
2022-10-17T16:05:23.030Z,81.43
2022-10-17T16:07:50.091Z,81.62
2022-10-17T16:10:17.096Z,81.66
2022-10-17T16:12:44.538Z,81.34
2022-10-17T16:15:17.149Z,81.44
2022-10-17T16:17:44.374Z,81.31
2022-10-17T16:20:12.651Z,81.34
2022-10-17T16:22:42.064Z,81.29
2022-10-17T16:25:24.992Z,81.46
2022-10-17T16:27:54.298Z,81.62
2022-10-17T16:32:49.361Z,82.20
2022-10-17T16:35:25.499Z,82.23
2022-10-17T16:37:52.281Z,82.56
2022-10-17T16:40:19.021Z,83.29
2022-10-17T16:42:45.765Z,83.39
2022-10-17T16:45:18.549Z,83.69
2022-10-17T16:47:45.709Z,83.62
2022-10-17T16:50:13.344Z,84.32
2022-10-17T16:52:39.965Z,84.46
2022-10-17T16:55:08.860Z,85.70
2022-10-17T17:00:12.974Z,85.49
2022-10-17T17:02:41.964Z,84.95
2022-10-17T17:05:08.839Z,84.99
2022-10-17T17:07:35.661Z,85.70
2022-10-17T17:10:02.612Z,86.29
2022-10-17T17:12:29.628Z,86.29
2022-10-17T17:14:56.552Z,87.65
2022-10-17T17:17:37.218Z,88.53
2022-10-17T17:20:10.071Z,90.56
2022-10-17T17:22:36.712Z,91.27
2022-10-17T17:25:03.453Z,92.76
2022-10-17T17:27:30.605Z,92.60
2022-10-17T17:29:57.610Z,92.91
2022-10-17T17:32:24.246Z,92.83
2022-10-17T17:34:50.893Z,92.54
2022-10-17T17:37:17.655Z,92.97
2022-10-17T17:39:44.305Z,94.12
2022-10-17T17:42:10.984Z,95.63
2022-10-17T17:44:37.720Z,96.07
2022-10-17T17:47:04.421Z,97.70
2022-10-17T17:49:30.977Z,98.30
2022-10-17T17:52:00.005Z,99.95
2022-10-17T17:54:31.614Z,100.00
2022-10-17T17:56:58.456Z,100.00
2022-10-17T17:59:26.249Z,100.00
2022-10-17T18:01:53.280Z,100.00
2022-10-17T18:04:19.983Z,100.00
2022-10-17T18:06:46.770Z,100.00
2022-10-17T18:09:13.350Z,100.00
2022-10-17T18:11:40.030Z,100.00
2022-10-17T18:14:10.361Z,100.00
2022-10-17T18:16:37.533Z,100.00
2022-10-17T18:19:07.294Z,100.00
2022-10-17T18:21:35.330Z,100.00
2022-10-17T18:24:02.593Z,100.00
2022-10-17T18:26:29.240Z,100.00
2022-10-17T18:28:56.656Z,100.00
2022-10-17T18:31:28.281Z,100.00
2022-10-17T18:33:56.936Z,100.00
2022-10-17T18:36:26.044Z,100.00
2022-10-17T18:38:53.442Z,100.00
2022-10-17T18:41:21.844Z,100.00
2022-10-17T18:43:49.475Z,100.00
2022-10-17T18:46:18.338Z,100.00
2022-10-17T18:48:46.462Z,100.00
2022-10-17T18:51:18.964Z,100.00
2022-10-17T18:53:48.062Z,100.00
2022-10-17T18:56:15.113Z,100.00
2022-10-17T18:58:42.315Z,100.00
2022-10-17T19:01:17.618Z,100.00
2022-10-17T19:03:46.958Z,100.00
2022-10-17T19:06:15.909Z,100.00
2022-10-17T19:08:43.490Z,100.00
2022-10-17T19:11:15.823Z,100.00
2022-10-17T19:13:43.655Z,100.00
2022-10-17T19:16:19.451Z,100.00
2022-10-17T19:18:51.248Z,100.00
2022-10-17T19:21:21.752Z,100.00
2022-10-17T19:23:53.541Z,100.00
2022-10-17T19:26:21.407Z,100.00
2022-10-17T19:28:48.442Z,100.00
2022-10-17T19:31:17.939Z,100.00
2022-10-17T19:33:45.233Z,100.00
2022-10-17T19:36:13.253Z,100.00
2022-10-17T19:38:39.978Z,100.00
2022-10-17T19:41:08.232Z,100.00
2022-10-17T19:43:39.034Z,100.00
2022-10-17T19:46:08.317Z,100.00
2022-10-17T19:48:39.200Z,100.00
2022-10-17T19:51:07.750Z,100.00
2022-10-17T19:53:35.156Z,100.00
2022-10-17T19:56:02.414Z,100.00
2022-10-17T19:58:29.210Z,100.00
2022-10-17T20:00:58.572Z,100.00
2022-10-17T20:03:25.462Z,100.00
2022-10-17T20:05:52.192Z,100.00
2022-10-17T20:08:19.159Z,100.00
2022-10-17T20:10:46.331Z,100.00
2022-10-17T20:13:14.110Z,100.00
2022-10-17T20:15:40.936Z,100.00
2022-10-17T20:18:08.223Z,100.00
2022-10-17T20:20:35.845Z,100.00
2022-10-17T20:23:03.439Z,100.00
2022-10-17T20:25:30.561Z,100.00
2022-10-17T20:27:57.187Z,100.00
2022-10-17T20:30:23.861Z,100.00
2022-10-17T20:32:55.125Z,100.00
2022-10-17T20:35:22.215Z,100.00
2022-10-17T20:37:49.418Z,100.00
2022-10-17T20:40:34.033Z,100.00
2022-10-17T20:43:01.857Z,100.00
2022-10-17T20:45:43.617Z,100.00
2022-10-17T20:48:16.574Z,100.00
2022-10-17T20:50:44.081Z,100.00
2022-10-17T20:53:35.396Z,100.00
2022-10-17T20:56:04.542Z,100.00
2022-10-17T20:58:31.502Z,100.00
2022-10-17T21:00:58.175Z,100.00
2022-10-17T21:03:26.137Z,100.00
2022-10-17T21:05:52.743Z,100.00
2022-10-17T21:08:19.410Z,100.00
2022-10-17T21:10:46.069Z,100.00
2022-10-17T21:13:12.751Z,100.00
2022-10-17T21:15:39.303Z,100.00
2022-10-17T21:18:05.962Z,100.00
2022-10-17T21:20:32.538Z,100.00
2022-10-17T21:23:00.547Z,100.00
2022-10-17T21:25:27.323Z,100.00
2022-10-17T21:27:54.099Z,100.00
2022-10-17T21:30:21.841Z,100.00
2022-10-17T21:32:53.984Z,100.00
2022-10-17T21:35:21.001Z,100.00
2022-10-17T21:37:47.653Z,100.00
2022-10-17T21:40:14.586Z,100.00
2022-10-17T21:42:41.308Z,100.00
2022-10-17T21:45:15.168Z,100.00
2022-10-17T21:47:54.943Z,100.00
2022-10-17T21:50:29.626Z,100.00
2022-10-17T21:52:58.130Z,100.00
2022-10-17T21:55:24.822Z,100.00
2022-10-17T21:57:53.220Z,100.00
2022-10-17T22:00:19.853Z,100.00
2022-10-17T22:02:46.427Z,100.00
2022-10-17T22:05:13.103Z,100.00
2022-10-17T22:07:39.838Z,100.00
2022-10-17T22:10:07.000Z,100.00
2022-10-17T22:12:33.742Z,100.00
2022-10-17T22:15:00.565Z,100.00
2022-10-17T22:17:27.461Z,100.00
2022-10-17T22:19:54.295Z,100.00
2022-10-17T22:22:21.050Z,100.00
2022-10-17T22:24:47.600Z,100.00
2022-10-17T22:27:14.165Z,100.00
2022-10-17T22:29:40.787Z,100.00
2022-10-17T22:32:07.395Z,100.00
2022-10-17T22:34:33.966Z,100.00
2022-10-17T22:37:01.055Z,100.00
2022-10-17T22:39:27.619Z,100.00
2022-10-17T22:41:54.227Z,100.00
2022-10-17T22:44:20.907Z,100.00
2022-10-17T22:46:47.710Z,100.00
2022-10-17T22:49:14.384Z,100.00
2022-10-17T22:51:41.043Z,100.00
2022-10-17T22:54:07.801Z,100.00
2022-10-17T22:56:34.438Z,100.00
2022-10-17T22:59:02.177Z,100.00
2022-10-17T23:01:28.936Z,100.00
2022-10-17T23:03:55.558Z,100.00
2022-10-17T23:06:24.060Z,100.00
2022-10-17T23:08:50.804Z,100.00
2022-10-17T23:11:18.088Z,100.00
2022-10-17T23:13:44.748Z,99.80
2022-10-17T23:16:11.419Z,99.08
2022-10-17T23:18:38.801Z,97.61
2022-10-17T23:21:06.525Z,98.88
2022-10-17T23:23:33.488Z,98.69
2022-10-17T23:26:09.828Z,99.24
2022-10-17T23:28:36.803Z,99.16
2022-10-17T23:31:18.632Z,98.22
2022-10-17T23:33:46.909Z,97.65
2022-10-17T23:36:15.047Z,95.81
2022-10-17T23:38:43.691Z,96.15
2022-10-17T23:41:11.112Z,95.87
2022-10-17T23:43:37.806Z,95.46
2022-10-17T23:46:05.722Z,96.42
2022-10-17T23:48:32.851Z,94.98
2022-10-17T23:51:02.267Z,94.96
2022-10-17T23:53:28.921Z,94.21
2022-10-17T23:55:55.682Z,94.59
2022-10-17T23:58:22.574Z,95.10
